createdAt,value
2019-01-25T00:00:34.629Z,95047.00
2019-01-25T00:06:05.129Z,95043.00
2019-01-25T00:11:34.801Z,95040.00
2019-01-25T00:17:04.583Z,95043.00
2019-01-25T00:22:34.269Z,95042.00
2019-01-25T00:28:04.021Z,95045.00
2019-01-25T00:33:33.631Z,95040.00
2019-01-25T00:39:04.531Z,95044.00
2019-01-25T00:44:35.121Z,95055.00
2019-01-25T00:50:10.553Z,95048.00
2019-01-25T00:55:39.989Z,95038.00
2019-01-25T01:01:09.706Z,95063.00
2019-01-25T01:06:39.356Z,95062.00
2019-01-25T01:12:08.949Z,95078.00
2019-01-25T01:17:38.544Z,95072.00
2019-01-25T01:23:08.140Z,95068.00
2019-01-25T01:28:37.677Z,95077.00
2019-01-25T01:34:07.218Z,95085.00
2019-01-25T01:39:37.027Z,95078.00
2019-01-25T01:45:08.647Z,95098.00
2019-01-25T01:50:38.269Z,95094.00
2019-01-25T01:56:07.985Z,95095.00
2019-01-25T02:01:38.629Z,95091.00
2019-01-25T02:07:11.551Z,95097.00
2019-01-25T02:12:40.989Z,95100.00
2019-01-25T02:18:10.415Z,95096.00
2019-01-25T02:23:40.147Z,95099.00
2019-01-25T02:29:09.902Z,95101.00
2019-01-25T02:34:39.349Z,95101.00
2019-01-25T02:40:16.289Z,95099.00
2019-01-25T02:45:47.551Z,95102.00
2019-01-25T02:51:26.092Z,95106.00
2019-01-25T02:56:58.332Z,95112.00
2019-01-25T03:02:34.047Z,95110.00
2019-01-25T03:08:03.016Z,95111.00
2019-01-25T03:13:32.719Z,95107.00
2019-01-25T03:19:02.334Z,95119.00
2019-01-25T03:24:32.164Z,95115.00
2019-01-25T03:30:01.697Z,95124.00
2019-01-25T03:35:31.572Z,95122.00
2019-01-25T03:41:01.285Z,95127.00
2019-01-25T03:46:30.902Z,95129.00
2019-01-25T03:52:00.456Z,95133.00
2019-01-25T03:57:30.126Z,95142.00
2019-01-25T04:02:59.605Z,95147.00
2019-01-25T04:08:29.213Z,95156.00
2019-01-25T04:13:58.656Z,95155.00
2019-01-25T04:19:28.109Z,95161.00
2019-01-25T04:24:57.607Z,95147.00
2019-01-25T04:30:32.820Z,95153.00
2019-01-25T04:36:02.792Z,95150.00
2019-01-25T04:41:32.229Z,95159.00
2019-01-25T04:47:01.721Z,95150.00
2019-01-25T04:52:31.388Z,95153.00
2019-01-25T04:58:16.385Z,95165.00
2019-01-25T05:03:45.792Z,95167.00
2019-01-25T05:09:15.479Z,95153.00
2019-01-25T05:14:46.736Z,95156.00
2019-01-25T05:20:16.174Z,95154.00
2019-01-25T05:25:45.627Z,95158.00
2019-01-25T05:31:15.257Z,95161.00
2019-01-25T05:36:44.762Z,95172.00
2019-01-25T05:42:15.082Z,95171.00
2019-01-25T05:47:45.265Z,95170.00
2019-01-25T05:53:21.352Z,95187.00
2019-01-25T05:58:51.029Z,95195.00
2019-01-25T06:04:20.454Z,95197.00
2019-01-25T06:09:49.838Z,95191.00
2019-01-25T06:15:19.235Z,95209.00
2019-01-25T06:20:54.545Z,95211.00
2019-01-25T06:26:24.002Z,95212.00
2019-01-25T06:31:53.338Z,95214.00
2019-01-25T06:37:22.790Z,95216.00
2019-01-25T06:42:52.215Z,95214.00
2019-01-25T06:48:21.698Z,95225.00
2019-01-25T06:53:51.111Z,95236.00
2019-01-25T06:59:21.289Z,95233.00
2019-01-25T07:04:50.780Z,95225.00
2019-01-25T07:10:21.436Z,95244.00
2019-01-25T07:15:50.767Z,95246.00
2019-01-25T07:21:20.276Z,95240.00
2019-01-25T07:26:49.809Z,95241.00
2019-01-25T07:32:19.309Z,95251.00
2019-01-25T07:37:48.651Z,95250.00
2019-01-25T07:43:18.178Z,95257.00
2019-01-25T07:48:47.578Z,95263.00
2019-01-25T07:54:17.167Z,95275.00
2019-01-25T07:59:46.664Z,95274.00
2019-01-25T08:05:16.129Z,95280.00
2019-01-25T08:10:45.788Z,95293.00
2019-01-25T08:16:15.213Z,95301.00
2019-01-25T08:21:44.689Z,95302.00
2019-01-25T08:27:14.256Z,95294.00
2019-01-25T08:32:43.708Z,95298.00
2019-01-25T08:38:13.300Z,95308.00
2019-01-25T08:43:42.682Z,95315.00
2019-01-25T08:49:12.212Z,95316.00
2019-01-25T08:54:41.784Z,95326.00
2019-01-25T09:00:18.189Z,95318.00
2019-01-25T09:05:47.669Z,95320.00
2019-01-25T09:11:17.184Z,95323.00
2019-01-25T09:16:46.703Z,95326.00
2019-01-25T09:22:16.194Z,95328.00
2019-01-25T09:27:46.180Z,95329.00
2019-01-25T09:33:15.728Z,95339.00
2019-01-25T09:38:45.241Z,95342.00
2019-01-25T09:44:14.712Z,95349.00
2019-01-25T09:49:44.148Z,95348.00
2019-01-25T09:55:17.250Z,95345.00
2019-01-25T10:00:54.543Z,95358.00
2019-01-25T10:06:24.033Z,95362.00
2019-01-25T10:11:53.437Z,95356.00
2019-01-25T10:17:22.835Z,95358.00
2019-01-25T10:22:52.511Z,95356.00
2019-01-25T10:28:30.182Z,95354.00
2019-01-25T10:33:59.798Z,95352.00
2019-01-25T10:39:32.982Z,95359.00
2019-01-25T10:45:04.694Z,95362.00
2019-01-25T10:50:35.013Z,95355.00
2019-01-25T10:56:06.077Z,95343.00
2019-01-25T11:01:35.634Z,95349.00
2019-01-25T11:07:05.854Z,95348.00
2019-01-25T11:12:38.875Z,95349.00
2019-01-25T11:18:11.568Z,95348.00
2019-01-25T11:23:41.256Z,95342.00
2019-01-25T11:29:10.838Z,95343.00
2019-01-25T11:34:42.433Z,95344.00
2019-01-25T11:40:37.563Z,95338.00
2019-01-25T11:46:07.695Z,95340.00
2019-01-25T11:51:38.121Z,95342.00
2019-01-25T11:57:07.712Z,95346.00
2019-01-25T12:02:37.258Z,95355.00
2019-01-25T12:08:07.472Z,95348.00
2019-01-25T12:13:38.588Z,95345.00
2019-01-25T12:19:08.123Z,95348.00
2019-01-25T12:24:37.804Z,95357.00
2019-01-25T12:30:23.516Z,95346.00
2019-01-25T12:35:53.104Z,95355.00
2019-01-25T12:41:22.720Z,95334.00
2019-01-25T12:46:52.425Z,95344.00
2019-01-25T12:52:23.108Z,95347.00
2019-01-25T12:58:00.414Z,95349.00
2019-01-25T13:03:29.977Z,95354.00
2019-01-25T13:08:59.503Z,95361.00
2019-01-25T13:14:29.079Z,95357.00
2019-01-25T13:19:58.600Z,95362.00
2019-01-25T13:25:28.344Z,95375.00
2019-01-25T13:30:57.849Z,95371.00
2019-01-25T13:36:29.560Z,95366.00
2019-01-25T13:41:59.190Z,95374.00
2019-01-25T13:47:30.070Z,95362.00
2019-01-25T13:52:59.573Z,95369.00
2019-01-25T13:58:29.070Z,95363.00
2019-01-25T14:03:58.573Z,95367.00
2019-01-25T14:09:28.194Z,95368.00
2019-01-25T14:14:57.818Z,95361.00
2019-01-25T14:20:32.342Z,95370.00
2019-01-25T14:26:09.920Z,95369.00
2019-01-25T14:31:39.386Z,95387.00
2019-01-25T14:37:08.907Z,95379.00
2019-01-25T14:42:38.353Z,95384.00
2019-01-25T14:48:08.061Z,95388.00
2019-01-25T14:53:37.497Z,95378.00
2019-01-25T14:59:07.090Z,95400.00
2019-01-25T15:04:36.702Z,95406.00
2019-01-25T15:10:22.111Z,95416.00
2019-01-25T15:15:51.776Z,95424.00
2019-01-25T15:21:23.674Z,95418.00
2019-01-25T15:26:54.818Z,95417.00
2019-01-25T15:32:25.486Z,95426.00
2019-01-25T15:37:55.166Z,95435.00
2019-01-25T15:43:25.085Z,95441.00
2019-01-25T15:48:56.131Z,95430.00
2019-01-25T15:54:25.740Z,95436.00
2019-01-25T15:59:55.904Z,95442.00
2019-01-25T16:05:26.292Z,95448.00
2019-01-25T16:10:56.173Z,95464.00
2019-01-25T16:16:26.189Z,95460.00
2019-01-25T16:21:56.852Z,95459.00
2019-01-25T16:27:26.503Z,95447.00
2019-01-25T16:32:56.200Z,95460.00
2019-01-25T16:38:25.883Z,95453.00
2019-01-25T16:43:55.451Z,95460.00
2019-01-25T16:49:25.278Z,95466.00
2019-01-25T16:54:54.925Z,95458.00
2019-01-25T17:00:28.758Z,95462.00
2019-01-25T17:05:58.607Z,95460.00
2019-01-25T17:11:28.156Z,95447.00
2019-01-25T17:16:59.465Z,95452.00
2019-01-25T17:22:29.045Z,95461.00
2019-01-25T17:27:58.660Z,95464.00
2019-01-25T17:33:28.790Z,95474.00
2019-01-25T17:38:58.256Z,95476.00
2019-01-25T17:44:27.823Z,95470.00
2019-01-25T17:49:57.448Z,95466.00
2019-01-25T17:55:27.018Z,95466.00
2019-01-25T18:00:57.696Z,95474.00
2019-01-25T18:06:27.415Z,95474.00
2019-01-25T18:11:58.042Z,95483.00
2019-01-25T18:17:27.486Z,95471.00
2019-01-25T18:22:57.347Z,95479.00
2019-01-25T18:28:31.384Z,95480.00
2019-01-25T18:34:00.970Z,95481.00
2019-01-25T18:39:31.460Z,95485.00
2019-01-25T18:45:00.970Z,95476.00
2019-01-25T18:50:30.451Z,95500.00
2019-01-25T18:55:59.981Z,95480.00
2019-01-25T19:01:29.619Z,95491.00
2019-01-25T19:06:59.262Z,95494.00
2019-01-25T19:12:28.870Z,95495.00
2019-01-25T19:17:58.590Z,95507.00
2019-01-25T19:23:28.053Z,95523.00
2019-01-25T19:28:57.672Z,95511.00
2019-01-25T19:34:27.079Z,95515.00
2019-01-25T19:39:56.842Z,95523.00
2019-01-25T19:45:26.778Z,95519.00
2019-01-25T19:50:56.246Z,95512.00
2019-01-25T19:56:26.062Z,95503.00
2019-01-25T20:01:55.585Z,95522.00
2019-01-25T20:07:34.350Z,95504.00
2019-01-25T20:13:04.044Z,95509.00
2019-01-25T20:18:33.900Z,95509.00
2019-01-25T20:24:03.549Z,95510.00
2019-01-25T20:29:34.018Z,95511.00
2019-01-25T20:35:04.318Z,95489.00
2019-01-25T20:40:34.706Z,95490.00
2019-01-25T20:46:06.575Z,95484.00
2019-01-25T20:51:36.902Z,95493.00
2019-01-25T20:57:17.915Z,95493.00
2019-01-25T21:02:51.459Z,95493.00
2019-01-25T21:08:24.878Z,95495.00
2019-01-25T21:14:01.971Z,95485.00
2019-01-25T21:19:44.549Z,95488.00
2019-01-25T21:25:18.234Z,95491.00
2019-01-25T21:30:47.832Z,95464.00
2019-01-25T21:36:19.014Z,95453.00
2019-01-25T21:41:48.636Z,95453.00
2019-01-25T21:47:18.102Z,95460.00
2019-01-25T21:52:47.769Z,95442.00
2019-01-25T21:58:19.170Z,95449.00
2019-01-25T22:03:48.698Z,95437.00
2019-01-25T22:09:18.433Z,95423.00
2019-01-25T22:14:48.198Z,95428.00
2019-01-25T22:20:24.674Z,95433.00
2019-01-25T22:25:54.412Z,95431.00
2019-01-25T22:31:24.139Z,95430.00
2019-01-25T22:36:53.609Z,95432.00
2019-01-25T22:42:24.236Z,95434.00
2019-01-25T22:47:55.952Z,95422.00
2019-01-25T22:53:25.791Z,95404.00
2019-01-25T22:58:55.508Z,95404.00
2019-01-25T23:04:32.135Z,95388.00
2019-01-25T23:10:01.693Z,95401.00
2019-01-25T23:15:31.136Z,95394.00
2019-01-25T23:21:00.737Z,95375.00
2019-01-25T23:26:30.148Z,95387.00
2019-01-25T23:31:59.748Z,95383.00
2019-01-25T23:37:29.361Z,95385.00
2019-01-25T23:42:59.153Z,95366.00
2019-01-25T23:48:29.598Z,95364.00
2019-01-25T23:53:58.993Z,95355.00
2019-01-25T23:59:28.594Z,95351.00
